Time;durP1;ratioP1;P1;durP2;ratioP2;P2;SDS_P1;SDS_P2;PMS_P1;PMS_P2;Temp;Humidity;BMP_temperature;BMP_pressure;BME280_temperature;BME280_humidity;BME280_pressure;Samples;Min_cycle;Max_cycle;Signal;HPM_P1;HPM_P2
2021/01/11 00:01:25;;;;;;;;;;;;;;;;;;5094380;28;19911;-77
2021/01/11 00:03:51;;;;;;;;;;;;;;;;;;5094497;28;19911;-77
2021/01/11 00:06:17;;;;;;;;;;;;;;;;;;5093037;28;19984;-77
2021/01/11 00:08:45;;;;;;;;;;;;;;;;;;5094174;28;20049;-77
2021/01/11 00:11:11;;;;;;;;;;;;;;;;;;5094333;28;19904;-77
2021/01/11 00:13:37;;;;;;;;;;;;;;;;;;5094270;28;19911;-76
2021/01/11 00:16:03;;;;;;;;;;;;;;;;;;5094314;28;19947;-77
2021/01/11 00:18:29;;;;;;;;;;;;;;;;;;5094310;28;19912;-77
2021/01/11 00:20:55;;;;;;;;;;;;;;;;;;5094160;28;19908;-77
2021/01/11 00:23:21;;;;;;;;;;;;;;;;;;5094354;28;19908;-77
2021/01/11 00:25:47;;;;;;;;;;;;;;;;;;5093997;28;20358;-78
2021/01/11 00:28:13;;;;;;;;;;;;;;;;;;5092752;28;19904;-77
2021/01/11 00:30:39;;;;;;;;;;;;;;;;;;5092812;28;19904;-77
2021/01/11 00:33:05;;;;;;;;;;;;;;;;;;5093212;28;20354;-77
2021/01/11 00:35:31;;;;;;;;;;;;;;;;;;5093956;28;19911;-77
2021/01/11 00:37:57;;;;;;;;;;;;;;;;;;5093955;28;19911;-77
2021/01/11 00:40:22;;;;;;;;;;;;;;;;;;5093978;28;19904;-77
2021/01/11 00:42:48;;;;;;;;;;;;;;;;;;5093925;28;20351;-77
2021/01/11 00:45:14;;;;;;;;;;;;;;;;;;5093825;28;19927;-77
2021/01/11 00:47:40;;;;;;;;;;;;;;;;;;5093869;28;19946;-78
2021/01/11 00:50:06;;;;;;;;;;;;;;;;;;5093782;28;20367;-77
2021/01/11 00:52:32;;;;;;;;;;;;;;;;;;5093927;28;19911;-78
2021/01/11 00:54:58;;;;;;;;;;;;;;;;;;5093724;28;19911;-77
2021/01/11 00:57:24;;;;;;;;;;;;;;;;;;5093881;28;19904;-76
2021/01/11 00:59:50;;;;;;;;;;;;;;;;;;5093615;28;19957;-78
2021/01/11 01:02:16;;;;;;;;;;;;;;;;;;5093970;28;19915;-77
2021/01/11 01:04:42;;;;;;;;;;;;;;;;;;5093673;28;20397;-77
2021/01/11 01:07:08;;;;;;;;;;;;;;;;;;5092424;28;20247;-78
2021/01/11 01:09:34;;;;;;;;;;;;;;;;;;5093429;28;19916;-77
2021/01/11 01:12:00;;;;;;;;;;;;;;;;;;5093581;28;19946;-77
2021/01/11 01:14:26;;;;;;;;;;;;;;;;;;5093606;28;19957;-77
2021/01/11 01:16:52;;;;;;;;;;;;;;;;;;5093738;28;20270;-77
2021/01/11 01:19:18;;;;;;;;;;;;;;;;;;5093536;28;19974;-77
2021/01/11 01:21:44;;;;;;;;;;;;;;;;;;5093473;28;19908;-77
2021/01/11 01:24:09;;;;;;;;;;;;;;;;;;5093470;28;19908;-78
2021/01/11 01:26:35;;;;;;;;;;;;;;;;;;5093629;28;19907;-77
2021/01/11 01:29:01;;;;;;;;;;;;;;;;;;5093384;28;19908;-77
2021/01/11 01:31:27;;;;;;;;;;;;;;;;;;5093723;28;19904;-77
2021/01/11 01:33:53;;;;;;;;;;;;;;;;;;5093607;28;19904;-77
2021/01/11 01:36:19;;;;;;;;;;;;;;;;;;5093417;28;19911;-77
2021/01/11 01:38:45;;;;;;;;;;;;;;;;;;5093286;28;19923;-77
2021/01/11 01:41:11;;;;;;;;;;;;;;;;;;5093358;28;19908;-77
2021/01/11 01:43:37;;;;;;;;;;;;;;;;;;5094728;28;19949;-77
2021/01/11 01:46:03;;;;;;;;;;;;;;;;;;5095720;28;20331;-77
2021/01/11 01:48:29;;;;;;;;;;;;;;;;;;5096989;28;19903;-77
2021/01/11 01:50:55;;;;;;;;;;;;;;;;;;5096899;28;19908;-78
2021/01/11 01:53:21;;;;;;;;;;;;;;;;;;5096924;28;19904;-77
2021/01/11 01:55:47;;;;;;;;;;;;;;;;;;5096953;28;19904;-77
2021/01/11 01:58:13;;;;;;;;;;;;;;;;;;5096650;28;20016;-76
2021/01/11 02:00:39;;;;;;;;;;;;;;;;;;5096839;28;19904;-77
2021/01/11 02:03:05;;;;;;;;;;;;;;;;;;5096678;28;20335;-77
2021/01/11 02:05:31;;;;;;;;;;;;;;;;;;5096759;28;19995;-77
2021/01/11 02:07:57;;;;;;;;;;;;;;;;;;5096683;28;19998;-76
2021/01/11 02:10:22;;;;;;;;;;;;;;;;;;5096436;28;20367;-76
2021/01/11 02:12:48;;;;;;;;;;;;;;;;;;5096542;28;20407;-77
2021/01/11 02:15:14;;;;;;;;;;;;;;;;;;5096483;28;19904;-76
2021/01/11 02:17:40;;;;;;;;;;;;;;;;;;5096448;28;19922;-77
2021/01/11 02:20:06;;;;;;;;;;;;;;;;;;5096336;28;20366;-76
2021/01/11 02:22:32;;;;;;;;;;;;;;;;;;5096362;28;20278;-76
2021/01/11 02:24:58;;;;;;;;;;;;;;;;;;5096360;28;19912;-77
2021/01/11 02:27:24;;;;;;;;;;;;;;;;;;5096245;28;20049;-77
2021/01/11 02:29:50;;;;;;;;;;;;;;;;;;5094944;28;19904;-77
2021/01/11 02:32:16;;;;;;;;;;;;;;;;;;5096509;28;19947;-76
2021/01/11 02:34:42;;;;;;;;;;;;;;;;;;5096150;28;19911;-76
2021/01/11 02:37:08;;;;;;;;;;;;;;;;;;5096216;28;20281;-77
2021/01/11 02:39:34;;;;;;;;;;;;;;;;;;5095981;28;19958;-76
2021/01/11 02:42:00;;;;;;;;;;;;;;;;;;5095889;28;19904;-77
2021/01/11 02:44:26;;;;;;;;;;;;;;;;;;5095953;28;19908;-77
2021/01/11 02:46:52;;;;;;;;;;;;;;;;;;5095830;28;19904;-77
2021/01/11 02:49:18;;;;;;;;;;;;;;;;;;5095897;28;19957;-77
2021/01/11 02:51:44;;;;;;;;;;;;;;;;;;5095717;28;19904;-78
2021/01/11 02:54:10;;;;;;;;;;;;;;;;;;5095505;28;19904;-77
2021/01/11 02:56:36;;;;;;;;;;;;;;;;;;5095056;28;19933;-77
2021/01/11 02:59:02;;;;;;;;;;;;;;;;;;5095579;28;19916;-77
2021/01/11 03:01:28;;;;;;;;;;;;;;;;;;5095572;28;19905;-77
2021/01/11 03:03:54;;;;;;;;;;;;;;;;;;5095552;28;20424;-77
2021/01/11 03:06:20;;;;;;;;;;;;;;;;;;5095505;28;20355;-77
2021/01/11 03:08:45;;;;;;;;;;;;;;;;;;5095223;28;20286;-77
2021/01/11 03:11:11;;;;;;;;;;;;;;;;;;5095863;28;19903;-77
2021/01/11 03:13:37;;;;;;;;;;;;;;;;;;5095435;28;20387;-77
2021/01/11 03:16:03;;;;;;;;;;;;;;;;;;5095234;28;19991;-77
2021/01/11 03:18:29;;;;;;;;;;;;;;;;;;5095267;28;19919;-77
2021/01/11 03:20:55;;;;;;;;;;;;;;;;;;5094961;28;19908;-77
2021/01/11 03:23:21;;;;;;;;;;;;;;;;;;5095263;28;19908;-77
2021/01/11 03:25:47;;;;;;;;;;;;;;;;;;5095061;28;20299;-78
2021/01/11 03:28:13;;;;;;;;;;;;;;;;;;5095364;28;19904;-78
2021/01/11 03:30:39;;;;;;;;;;;;;;;;;;5093752;28;20372;-78
2021/01/11 03:33:05;;;;;;;;;;;;;;;;;;5094990;28;19914;-78
2021/01/11 03:35:31;;;;;;;;;;;;;;;;;;5094956;28;19911;-77
2021/01/11 03:37:57;;;;;;;;;;;;;;;;;;5094853;28;19910;-77
2021/01/11 03:40:23;;;;;;;;;;;;;;;;;;5094865;28;19904;-77
2021/01/11 03:42:49;;;;;;;;;;;;;;;;;;5093532;28;20279;-78
2021/01/11 03:45:15;;;;;;;;;;;;;;;;;;5094752;28;19946;-77
2021/01/11 03:47:41;;;;;;;;;;;;;;;;;;5094808;28;19908;-78
2021/01/11 03:50:07;;;;;;;;;;;;;;;;;;5094761;28;20408;-78
2021/01/11 03:52:33;;;;;;;;;;;;;;;;;;5094701;28;19904;-78
2021/01/11 03:54:59;;;;;;;;;;;;;;;;;;5094588;28;19958;-78
2021/01/11 03:57:24;;;;;;;;;;;;;;;;;;5095004;28;19904;-78
2021/01/11 03:59:50;;;;;;;;;;;;;;;;;;5094449;28;20061;-78
2021/01/11 04:02:16;;;;;;;;;;;;;;;;;;5094490;28;19904;-77
2021/01/11 04:04:42;;;;;;;;;;;;;;;;;;5094405;28;19903;-77
2021/01/11 04:07:08;;;;;;;;;;;;;;;;;;5094345;28;19904;-78
2021/01/11 04:09:34;;;;;;;;;;;;;;;;;;5094291;28;19923;-78
2021/01/11 04:12:00;;;;;;;;;;;;;;;;;;5094393;28;20287;-78
2021/01/11 04:14:26;;;;;;;;;;;;;;;;;;5094340;28;19904;-77
2021/01/11 04:16:52;;;;;;;;;;;;;;;;;;5094318;28;19904;-78
2021/01/11 04:19:18;;;;;;;;;;;;;;;;;;5094109;28;20002;-78
2021/01/11 04:21:44;;;;;;;;;;;;;;;;;;5094223;28;19915;-78
2021/01/11 04:24:10;;;;;;;;;;;;;;;;;;5094315;28;19912;-77
2021/01/11 04:26:36;;;;;;;;;;;;;;;;;;5094170;28;19908;-78
2021/01/11 04:29:02;;;;;;;;;;;;;;;;;;5094125;28;20348;-78
2021/01/11 04:31:28;;;;;;;;;;;;;;;;;;5094045;28;20275;-77
2021/01/11 04:33:54;;;;;;;;;;;;;;;;;;5094170;28;19904;-78
2021/01/11 04:36:20;;;;;;;;;;;;;;;;;;5093968;28;19904;-78
2021/01/11 04:38:46;;;;;;;;;;;;;;;;;;5093928;28;19926;-78
2021/01/11 04:41:13;;;;;;;;;;;;;;;;;;5094018;28;19904;-78
2021/01/11 04:43:39;;;;;;;;;;;;;;;;;;5093959;28;19999;-78
2021/01/11 04:46:05;;;;;;;;;;;;;;;;;;5093966;28;19943;-77
2021/01/11 04:48:31;;;;;;;;;;;;;;;;;;5093787;28;19904;-78
2021/01/11 04:50:57;;;;;;;;;;;;;;;;;;5093795;28;19904;-79
2021/01/11 04:53:23;;;;;;;;;;;;;;;;;;5093866;28;19904;-78
2021/01/11 04:55:49;;;;;;;;;;;;;;;;;;5093835;28;19904;-78
2021/01/11 04:58:15;;;;;;;;;;;;;;;;;;5093673;28;19911;-78
2021/01/11 05:00:41;;;;;;;;;;;;;;;;;;5093592;28;19904;-78
2021/01/11 05:03:07;;;;;;;;;;;;;;;;;;5093785;28;20053;-78
2021/01/11 05:05:33;;;;;;;;;;;;;;;;;;5093698;28;19904;-78
2021/01/11 05:07:58;;;;;;;;;;;;;;;;;;5093783;28;19973;-78
2021/01/11 05:10:24;;;;;;;;;;;;;;;;;;5093537;28;19916;-77
2021/01/11 05:12:50;;;;;;;;;;;;;;;;;;5093634;28;20274;-78
2021/01/11 05:15:16;;;;;;;;;;;;;;;;;;5093764;28;19903;-78
2021/01/11 05:17:43;;;;;;;;;;;;;;;;;;5093622;28;19991;-78
2021/01/11 05:20:09;;;;;;;;;;;;;;;;;;5097414;28;19912;-77
2021/01/11 05:22:35;;;;;;;;;;;;;;;;;;5097761;28;19915;-78
2021/01/11 05:25:01;;;;;;;;;;;;;;;;;;5097582;28;19908;-78
2021/01/11 05:27:27;;;;;;;;;;;;;;;;;;5097408;28;19943;-77
2021/01/11 05:29:53;;;;;;;;;;;;;;;;;;5097672;28;19911;-77
2021/01/11 05:32:19;;;;;;;;;;;;;;;;;;5097242;28;19904;-78
2021/01/11 05:34:45;;;;;;;;;;;;;;;;;;5097323;28;19957;-78
2021/01/11 05:37:11;;;;;;;;;;;;;;;;;;5097268;28;19904;-78
2021/01/11 05:39:36;;;;;;;;;;;;;;;;;;5097174;28;19912;-78
2021/01/11 05:42:02;;;;;;;;;;;;;;;;;;5097128;28;19910;-78
2021/01/11 05:44:28;;;;;;;;;;;;;;;;;;5097217;28;20374;-78
2021/01/11 05:46:54;;;;;;;;;;;;;;;;;;5097070;28;19904;-78
2021/01/11 05:49:20;;;;;;;;;;;;;;;;;;5097038;28;19929;-77
2021/01/11 05:51:46;;;;;;;;;;;;;;;;;;5096940;28;19911;-78
2021/01/11 05:54:12;;;;;;;;;;;;;;;;;;5096968;28;19904;-77
2021/01/11 05:56:38;;;;;;;;;;;;;;;;;;5096911;28;19904;-78
2021/01/11 05:59:04;;;;;;;;;;;;;;;;;;5097001;28;19912;-78
2021/01/11 06:01:30;;;;;;;;;;;;;;;;;;5096661;28;20389;-76
2021/01/11 06:03:56;;;;;;;;;;;;;;;;;;5096759;28;19911;-76
2021/01/11 06:06:22;;;;;;;;;;;;;;;;;;5095358;28;20414;-76
2021/01/11 06:08:48;;;;;;;;;;;;;;;;;;5096436;28;20049;-76
2021/01/11 06:11:15;;;;;;;;;;;;;;;;;;5085744;28;19921;-76
2021/01/11 06:13:41;;;;;;;;;;;;;;;;;;5084010;28;19904;-78
2021/01/11 06:16:07;;;;;;;;;;;;;;;;;;5096715;28;19908;-78
2021/01/11 06:18:33;;;;;;;;;;;;;;;;;;5096240;28;20002;-78
2021/01/11 06:20:59;;;;;;;;;;;;;;;;;;5084195;28;20378;-78
2021/01/11 06:23:25;;;;;;;;;;;;;;;;;;5076359;28;20310;-77
2021/01/11 06:25:51;;;;;;;;;;;;;;;;;;5076306;28;19905;-77
2021/01/11 06:28:19;;;;;;;;;;;;;;;;;;5075707;28;19958;-79
2021/01/11 06:30:45;;;;;;;;;;;;;;;;;;5086400;28;19904;-77
2021/01/11 06:33:11;;;;;;;;;;;;;;;;;;5091382;28;19915;-78
2021/01/11 06:35:37;;;;;;;;;;;;;;;;;;5093479;28;19907;-78
2021/01/11 06:38:03;;;;;;;;;;;;;;;;;;5094581;28;19957;-77
2021/01/11 06:40:29;;;;;;;;;;;;;;;;;;5093720;28;19908;-78
2021/01/11 06:42:55;;;;;;;;;;;;;;;;;;5094096;28;19904;-80
2021/01/11 06:45:21;;;;;;;;;;;;;;;;;;5092495;28;19932;-78
2021/01/11 06:47:47;;;;;;;;;;;;;;;;;;5093148;28;19915;-77
2021/01/11 06:50:13;;;;;;;;;;;;;;;;;;5093340;28;20270;-76
2021/01/11 06:52:38;;;;;;;;;;;;;;;;;;5093202;28;20357;-77
2021/01/11 06:55:04;;;;;;;;;;;;;;;;;;5092892;28;19904;-78
2021/01/11 06:57:30;;;;;;;;;;;;;;;;;;5093390;28;19950;-76
2021/01/11 06:59:57;;;;;;;;;;;;;;;;;;5092807;28;19919;-77
2021/01/11 07:02:23;;;;;;;;;;;;;;;;;;5092824;28;19908;-77
2021/01/11 07:04:49;;;;;;;;;;;;;;;;;;5091673;28;19950;-77
2021/01/11 07:07:15;;;;;;;;;;;;;;;;;;5092906;28;19919;-77
2021/01/11 07:09:41;;;;;;;;;;;;;;;;;;5091745;28;19916;-76
2021/01/11 07:12:07;;;;;;;;;;;;;;;;;;5083278;28;19908;-77
2021/01/11 07:14:33;;;;;;;;;;;;;;;;;;5091487;28;19954;-78
2021/01/11 07:16:59;;;;;;;;;;;;;;;;;;5092614;28;19908;-76
2021/01/11 07:19:25;;;;;;;;;;;;;;;;;;5095721;28;19918;-78
2021/01/11 07:21:51;;;;;;;;;;;;;;;;;;5091952;28;20244;-76
2021/01/11 07:24:17;;;;;;;;;;;;;;;;;;5092478;28;20015;-76
2021/01/11 07:26:43;;;;;;;;;;;;;;;;;;5093908;28;19904;-77
2021/01/11 07:29:09;;;;;;;;;;;;;;;;;;5092065;28;19908;-77
2021/01/11 07:31:35;;;;;;;;;;;;;;;;;;5092171;28;19908;-76
2021/01/11 07:34:05;;;;;;;;;;;;;;;;;;5092371;28;19908;-77
2021/01/11 07:36:31;;;;;;;;;;;;;;;;;;5092153;28;19908;-76
2021/01/11 07:38:57;;;;;;;;;;;;;;;;;;5091781;28;19916;-77
2021/01/11 07:41:22;;;;;;;;;;;;;;;;;;5091955;28;19994;-77
2021/01/11 07:43:48;;;;;;;;;;;;;;;;;;5087263;28;19912;-77
2021/01/11 07:46:14;;;;;;;;;;;;;;;;;;5079143;28;19911;-76
2021/01/11 07:48:40;;;;;;;;;;;;;;;;;;5089633;28;20331;-77
2021/01/11 07:51:06;;;;;;;;;;;;;;;;;;5092367;28;19910;-77
2021/01/11 07:53:32;;;;;;;;;;;;;;;;;;5092030;28;19904;-78
2021/01/11 07:55:58;;;;;;;;;;;;;;;;;;5092263;28;19933;-79
2021/01/11 07:58:24;;;;;;;;;;;;;;;;;;5091829;28;19911;-77
2021/01/11 08:00:50;;;;;;;;;;;;;;;;;;5091726;28;20367;-77
2021/01/11 08:03:16;;;;;;;;;;;;;;;;;;5090878;28;19908;-76
2021/01/11 08:05:42;;;;;;;;;;;;;;;;;;5091755;28;19912;-76
2021/01/11 08:08:08;;;;;;;;;;;;;;;;;;5092275;28;20011;-79
2021/01/11 08:10:34;;;;;;;;;;;;;;;;;;5091503;28;20286;-77
2021/01/11 08:13:00;;;;;;;;;;;;;;;;;;5091867;28;19915;-78
2021/01/11 08:15:26;;;;;;;;;;;;;;;;;;5090745;28;20695;-77
2021/01/11 08:17:52;;;;;;;;;;;;;;;;;;5090432;28;19904;-78
2021/01/11 08:20:18;;;;;;;;;;;;;;;;;;5091264;28;19955;-77
2021/01/11 08:22:44;;;;;;;;;;;;;;;;;;5090917;28;20259;-77
2021/01/11 08:25:10;;;;;;;;;;;;;;;;;;5091692;28;20003;-79
2021/01/11 08:27:36;;;;;;;;;;;;;;;;;;5091211;28;19908;-77
2021/01/11 08:30:02;;;;;;;;;;;;;;;;;;5091338;28;19915;-78
2021/01/11 08:32:28;;;;;;;;;;;;;;;;;;5091078;28;19912;-80
2021/01/11 08:34:54;;;;;;;;;;;;;;;;;;5091595;28;19931;-79
2021/01/11 08:37:20;;;;;;;;;;;;;;;;;;5090928;28;19904;-78
2021/01/11 08:39:46;;;;;;;;;;;;;;;;;;5091014;28;19912;-76
2021/01/11 08:42:12;;;;;;;;;;;;;;;;;;5091617;28;19904;-78
2021/01/11 08:44:39;;;;;;;;;;;;;;;;;;5091278;28;19944;-78
2021/01/11 08:47:05;;;;;;;;;;;;;;;;;;5091329;28;19961;-78
2021/01/11 08:49:31;;;;;;;;;;;;;;;;;;5091454;28;19939;-76
2021/01/11 08:51:57;;;;;;;;;;;;;;;;;;5090588;28;20670;-77
2021/01/11 08:54:23;;;;;;;;;;;;;;;;;;5094220;28;19904;-76
2021/01/11 08:56:49;;;;;;;;;;;;;;;;;;5094838;28;19951;-79
2021/01/11 08:59:15;;;;;;;;;;;;;;;;;;5094043;28;19965;-77
2021/01/11 09:01:42;;;;;;;;;;;;;;;;;;5091796;28;19961;-77
2021/01/11 09:04:10;;;;;;;;;;;;;;;;;;5094995;28;19911;-77
2021/01/11 09:06:36;;;;;;;;;;;;;;;;;;5094761;28;19911;-77
2021/01/11 09:09:02;;;;;;;;;;;;;;;;;;5094799;28;20477;-77
2021/01/11 09:11:28;;;;;;;;;;;;;;;;;;5094802;28;19983;-77
2021/01/11 09:13:54;;;;;;;;;;;;;;;;;;5094923;28;19969;-77
2021/01/11 09:16:20;;;;;;;;;;;;;;;;;;5095107;28;19951;-76
2021/01/11 09:18:46;;;;;;;;;;;;;;;;;;5095304;28;20313;-77
2021/01/11 09:21:12;;;;;;;;;;;;;;;;;;5095091;28;19976;-78
2021/01/11 09:23:38;;;;;;;;;;;;;;;;;;5095215;28;19912;-78
2021/01/11 09:26:03;;;;;;;;;;;;;;;;;;5094952;28;19961;-76
2021/01/11 09:28:29;;;;;;;;;;;;;;;;;;5095142;28;19904;-77
2021/01/11 09:30:55;;;;;;;;;;;;;;;;;;5095022;28;19912;-76
2021/01/11 09:33:21;;;;;;;;;;;;;;;;;;5095000;28;19904;-78
2021/01/11 09:35:47;;;;;;;;;;;;;;;;;;5094276;28;19911;-78
2021/01/11 09:38:15;;;;;;;;;;;;;;;;;;5094562;28;19900;-77
2021/01/11 09:40:41;;;;;;;;;;;;;;;;;;5094671;28;19912;-76
2021/01/11 09:43:08;;;;;;;;;;;;;;;;;;5094010;28;20264;-78
2021/01/11 09:45:35;;;;;;;;;;;;;;;;;;5094561;28;19916;-79
2021/01/11 09:48:01;;;;;;;;;;;;;;;;;;5094396;28;19994;-78
2021/01/11 09:50:27;;;;;;;;;;;;;;;;;;5094442;28;19995;-79
2021/01/11 09:52:54;;;;;;;;;;;;;;;;;;5094666;28;19904;-75
2021/01/11 09:55:20;;;;;;;;;;;;;;;;;;5094256;28;19912;-80
2021/01/11 09:57:45;;;;;;;;;;;;;;;;;;5094603;28;19904;-75
2021/01/11 10:00:11;;;;;;;;;;;;;;;;;;5094260;28;20010;-76
2021/01/11 10:02:37;;;;;;;;;;;;;;;;;;5093668;28;19931;-76
2021/01/11 10:05:03;;;;;;;;;;;;;;;;;;5093832;28;19908;-78
2021/01/11 10:07:29;;;;;;;;;;;;;;;;;;5094236;28;19911;-77
2021/01/11 10:09:55;;;;;;;;;;;;;;;;;;5093949;28;19949;-78
2021/01/11 10:12:21;;;;;;;;;;;;;;;;;;5093771;28;19999;-79
2021/01/11 10:14:47;;;;;;;;;;;;;;;;;;5093970;28;19912;-77
2021/01/11 10:17:13;;;;;;;;;;;;;;;;;;5095303;28;20320;-79
2021/01/11 10:19:39;;;;;;;;;;;;;;;;;;5091797;28;19916;-78
2021/01/11 10:22:05;;;;;;;;;;;;;;;;;;5092505;28;19908;-77
2021/01/11 10:24:31;;;;;;;;;;;;;;;;;;5093840;28;19908;-77
2021/01/11 10:26:57;;;;;;;;;;;;;;;;;;5093622;28;20023;-77
2021/01/11 10:29:23;;;;;;;;;;;;;;;;;;5093441;28;19912;-78
2021/01/11 10:31:49;;;;;;;;;;;;;;;;;;5093657;28;20317;-77
2021/01/11 10:34:15;;;;;;;;;;;;;;;;;;5093701;28;19947;-78
2021/01/11 10:36:41;;;;;;;;;;;;;;;;;;5093765;28;19915;-78
2021/01/11 10:39:07;;;;;;;;;;;;;;;;;;5093500;28;19963;-77
2021/01/11 10:41:33;;;;;;;;;;;;;;;;;;5093410;28;20465;-78
2021/01/11 10:43:59;;;;;;;;;;;;;;;;;;5093086;28;19911;-78
2021/01/11 10:46:25;;;;;;;;;;;;;;;;;;5084461;28;19920;-80
2021/01/11 10:48:51;;;;;;;;;;;;;;;;;;5080998;28;19904;-77
2021/01/11 10:51:17;;;;;;;;;;;;;;;;;;5073103;28;19904;-77
2021/01/11 10:53:43;;;;;;;;;;;;;;;;;;5073286;28;19927;-77
2021/01/11 10:56:09;;;;;;;;;;;;;;;;;;5072944;28;19904;-79
2021/01/11 10:58:35;;;;;;;;;;;;;;;;;;5072795;28;20236;-78
2021/01/11 11:01:01;;;;;;;;;;;;;;;;;;5072915;28;19908;-78
2021/01/11 11:03:27;;;;;;;;;;;;;;;;;;5072753;28;19947;-78
2021/01/11 11:05:53;;;;;;;;;;;;;;;;;;5073071;28;19928;-81
2021/01/11 11:08:19;;;;;;;;;;;;;;;;;;5072738;28;20381;-78
2021/01/11 11:10:45;;;;;;;;;;;;;;;;;;5072931;28;19959;-79
2021/01/11 11:13:10;;;;;;;;;;;;;;;;;;5072523;28;19939;-79
2021/01/11 11:15:36;;;;;;;;;;;;;;;;;;5072144;28;19904;-83
2021/01/11 11:18:02;;;;;;;;;;;;;;;;;;5072659;28;19904;-76
2021/01/11 11:20:28;;;;;;;;;;;;;;;;;;5072342;28;19924;-76
2021/01/11 11:22:54;;;;;;;;;;;;;;;;;;5092820;28;19908;-78
2021/01/11 11:25:20;;;;;;;;;;;;;;;;;;5091024;28;20320;-78
2021/01/11 11:27:49;;;;;;;;;;;;;;;;;;5092748;28;19919;-77
2021/01/11 11:30:15;;;;;;;;;;;;;;;;;;5092525;28;19900;-78
2021/01/11 11:32:41;;;;;;;;;;;;;;;;;;5092534;28;19905;-78
2021/01/11 11:35:07;;;;;;;;;;;;;;;;;;5092527;28;19900;-77
2021/01/11 11:37:33;;;;;;;;;;;;;;;;;;5092085;28;19914;-77
2021/01/11 11:39:59;;;;;;;;;;;;;;;;;;5091888;28;19924;-76
2021/01/11 11:42:25;;;;;;;;;;;;;;;;;;5091681;28;19904;-79
2021/01/11 11:44:51;;;;;;;;;;;;;;;;;;5092267;28;20287;-78
2021/01/11 11:47:17;;;;;;;;;;;;;;;;;;5091845;28;19951;-78
2021/01/11 11:49:43;;;;;;;;;;;;;;;;;;5086448;28;20347;-77
2021/01/11 11:52:09;;;;;;;;;;;;;;;;;;5089762;28;20320;-77
2021/01/11 11:54:35;;;;;;;;;;;;;;;;;;5091928;28;19908;-77
2021/01/11 11:57:01;;;;;;;;;;;;;;;;;;5092146;28;19904;-77
2021/01/11 11:59:27;;;;;;;;;;;;;;;;;;5079877;28;20336;-76
2021/01/11 12:01:53;;;;;;;;;;;;;;;;;;5071531;28;19995;-77
2021/01/11 12:04:18;;;;;;;;;;;;;;;;;;5071470;28;20002;-76
2021/01/11 12:06:44;;;;;;;;;;;;;;;;;;5071418;28;19999;-76
2021/01/11 12:09:10;;;;;;;;;;;;;;;;;;5071485;28;19916;-76
2021/01/11 12:11:36;;;;;;;;;;;;;;;;;;5071510;28;19904;-75
2021/01/11 12:14:02;;;;;;;;;;;;;;;;;;5070842;28;20291;-77
2021/01/11 12:16:28;;;;;;;;;;;;;;;;;;5071213;28;19912;-77
2021/01/11 12:18:54;;;;;;;;;;;;;;;;;;5077724;28;19987;-76
2021/01/11 12:21:20;;;;;;;;;;;;;;;;;;5091516;28;20220;-79
2021/01/11 12:23:46;;;;;;;;;;;;;;;;;;5086588;28;19912;-78
2021/01/11 12:26:12;;;;;;;;;;;;;;;;;;5091568;28;19990;-77
2021/01/11 12:28:38;;;;;;;;;;;;;;;;;;5091586;28;19911;-76
2021/01/11 12:31:04;;;;;;;;;;;;;;;;;;5090371;28;19900;-76
2021/01/11 12:33:30;;;;;;;;;;;;;;;;;;5090996;28;19915;-77
2021/01/11 12:35:56;;;;;;;;;;;;;;;;;;5091824;28;20302;-76
2021/01/11 12:38:22;;;;;;;;;;;;;;;;;;5091341;28;20449;-76
2021/01/11 12:40:48;;;;;;;;;;;;;;;;;;5091782;28;19916;-76
2021/01/11 12:43:14;;;;;;;;;;;;;;;;;;5091462;28;20302;-77
2021/01/11 12:45:40;;;;;;;;;;;;;;;;;;5091348;28;20016;-78
2021/01/11 12:48:06;;;;;;;;;;;;;;;;;;5090793;28;19929;-77
2021/01/11 12:50:32;;;;;;;;;;;;;;;;;;5091430;28;20673;-77
2021/01/11 12:52:58;;;;;;;;;;;;;;;;;;5091418;28;19907;-73
2021/01/11 12:55:24;;;;;;;;;;;;;;;;;;5090436;28;19969;-77
2021/01/11 12:57:50;;;;;;;;;;;;;;;;;;5091064;28;19908;-77
2021/01/11 13:00:16;;;;;;;;;;;;;;;;;;5091170;28;20309;-76
2021/01/11 13:02:41;;;;;;;;;;;;;;;;;;5090984;28;19908;-76
2021/01/11 13:05:07;;;;;;;;;;;;;;;;;;5091280;28;19990;-77
2021/01/11 13:07:33;;;;;;;;;;;;;;;;;;5090185;28;19908;-77
2021/01/11 13:09:59;;;;;;;;;;;;;;;;;;5078664;28;19923;-77
2021/01/11 13:12:25;;;;;;;;;;;;;;;;;;5084669;28;19919;-77
2021/01/11 13:14:51;;;;;;;;;;;;;;;;;;5084342;28;19908;-77
2021/01/11 13:17:17;;;;;;;;;;;;;;;;;;5083578;28;19919;-76
2021/01/11 13:19:43;;;;;;;;;;;;;;;;;;5084569;28;19992;-80
2021/01/11 13:22:09;;;;;;;;;;;;;;;;;;5090946;28;19915;-73
2021/01/11 13:24:35;;;;;;;;;;;;;;;;;;5086985;28;19920;-78
2021/01/11 13:27:01;;;;;;;;;;;;;;;;;;5076937;28;19916;-78
2021/01/11 13:29:28;;;;;;;;;;;;;;;;;;5078999;28;19912;-78
2021/01/11 13:31:54;;;;;;;;;;;;;;;;;;5086202;28;19943;-79
2021/01/11 13:34:20;;;;;;;;;;;;;;;;;;5081044;28;20464;-80
2021/01/11 13:36:46;;;;;;;;;;;;;;;;;;5079702;28;19934;-78
2021/01/11 13:39:12;;;;;;;;;;;;;;;;;;5085051;28;19960;-80
2021/01/11 13:41:38;;;;;;;;;;;;;;;;;;5116436;28;19903;-78
2021/01/11 13:44:04;;;;;;;;;;;;;;;;;;5116387;28;19910;-79
2021/01/11 13:46:30;;;;;;;;;;;;;;;;;;5097297;28;19908;-78
2021/01/11 13:48:56;;;;;;;;;;;;;;;;;;5089250;28;19908;-80
2021/01/11 13:51:22;;;;;;;;;;;;;;;;;;5092362;28;19957;-78
2021/01/11 13:53:48;;;;;;;;;;;;;;;;;;5094156;28;19907;-81
2021/01/11 13:56:16;;;;;;;;;;;;;;;;;;5080740;28;19915;-77
2021/01/11 13:58:41;;;;;;;;;;;;;;;;;;5075364;28;19955;-79
2021/01/11 14:01:07;;;;;;;;;;;;;;;;;;5074718;28;19919;-78
2021/01/11 14:03:33;;;;;;;;;;;;;;;;;;5075212;28;19905;-78
2021/01/11 14:05:59;;;;;;;;;;;;;;;;;;5073896;28;19904;-79
2021/01/11 14:08:25;;;;;;;;;;;;;;;;;;5087968;28;19919;-79
2021/01/11 14:10:51;;;;;;;;;;;;;;;;;;5095237;28;19916;-78
2021/01/11 14:13:17;;;;;;;;;;;;;;;;;;5085980;28;20057;-76
2021/01/11 14:15:43;;;;;;;;;;;;;;;;;;5075113;28;19904;-78
2021/01/11 14:18:09;;;;;;;;;;;;;;;;;;5074574;28;19909;-79
2021/01/11 14:20:35;;;;;;;;;;;;;;;;;;5075146;28;19913;-79
2021/01/11 14:23:01;;;;;;;;;;;;;;;;;;5074881;28;19912;-78
2021/01/11 14:25:27;;;;;;;;;;;;;;;;;;5074545;28;20402;-76
2021/01/11 14:27:53;;;;;;;;;;;;;;;;;;5074785;28;19996;-77
2021/01/11 14:30:19;;;;;;;;;;;;;;;;;;5074486;28;19915;-78
2021/01/11 14:32:45;;;;;;;;;;;;;;;;;;5074577;28;19904;-76
2021/01/11 14:35:11;;;;;;;;;;;;;;;;;;5074388;28;19943;-79
2021/01/11 14:37:37;;;;;;;;;;;;;;;;;;5074746;28;19995;-77
2021/01/11 14:40:03;;;;;;;;;;;;;;;;;;5074329;28;20012;-79
2021/01/11 14:42:29;;;;;;;;;;;;;;;;;;5074794;28;19904;-79
2021/01/11 14:44:57;;;;;;;;;;;;;;;;;;5074678;28;19904;-79
2021/01/11 14:47:23;;;;;;;;;;;;;;;;;;5074230;28;19911;-77
2021/01/11 14:49:49;;;;;;;;;;;;;;;;;;5074579;28;19904;-80
2021/01/11 14:52:15;;;;;;;;;;;;;;;;;;5073279;28;19957;-80
2021/01/11 14:54:41;;;;;;;;;;;;;;;;;;5074490;28;19904;-78
2021/01/11 14:57:07;;;;;;;;;;;;;;;;;;5077004;28;20075;-77
2021/01/11 14:59:33;;;;;;;;;;;;;;;;;;5094144;28;20388;-78
2021/01/11 15:01:59;;;;;;;;;;;;;;;;;;5090000;28;20275;-79
2021/01/11 15:04:25;;;;;;;;;;;;;;;;;;5072659;28;19908;-79
2021/01/11 15:06:51;;;;;;;;;;;;;;;;;;5074268;28;19987;-79
2021/01/11 15:09:17;;;;;;;;;;;;;;;;;;5073732;28;19920;-78
2021/01/11 15:11:43;;;;;;;;;;;;;;;;;;5075112;28;19905;-78
2021/01/11 15:14:09;;;;;;;;;;;;;;;;;;5089164;28;19915;-78
2021/01/11 15:16:34;;;;;;;;;;;;;;;;;;5073997;28;19908;-77
2021/01/11 15:19:00;;;;;;;;;;;;;;;;;;5073618;28;19909;-77
2021/01/11 15:21:26;;;;;;;;;;;;;;;;;;5073743;28;19916;-77
2021/01/11 15:23:52;;;;;;;;;;;;;;;;;;5075869;28;20291;-77
2021/01/11 15:26:18;;;;;;;;;;;;;;;;;;5073705;28;19957;-77
2021/01/11 15:28:44;;;;;;;;;;;;;;;;;;5073828;28;19904;-80
2021/01/11 15:31:10;;;;;;;;;;;;;;;;;;5073542;28;20407;-77
2021/01/11 15:33:36;;;;;;;;;;;;;;;;;;5073503;28;20352;-80
2021/01/11 15:36:02;;;;;;;;;;;;;;;;;;5089621;28;20271;-79
2021/01/11 15:38:28;;;;;;;;;;;;;;;;;;5094030;28;19904;-78
2021/01/11 15:40:54;;;;;;;;;;;;;;;;;;5094576;28;19915;-79
2021/01/11 15:43:20;;;;;;;;;;;;;;;;;;5094807;28;20352;-79
2021/01/11 15:45:47;;;;;;;;;;;;;;;;;;5094839;28;19934;-77
2021/01/11 15:48:13;;;;;;;;;;;;;;;;;;5094310;28;19962;-78
2021/01/11 15:50:39;;;;;;;;;;;;;;;;;;5093571;28;20370;-78
2021/01/11 15:53:05;;;;;;;;;;;;;;;;;;5094659;28;19911;-81
2021/01/11 15:55:31;;;;;;;;;;;;;;;;;;5094713;28;19910;-79
2021/01/11 15:57:57;;;;;;;;;;;;;;;;;;5094388;28;19904;-78
2021/01/11 16:00:22;;;;;;;;;;;;;;;;;;5094386;28;19912;-79
2021/01/11 16:02:48;;;;;;;;;;;;;;;;;;5094117;28;19904;-77
2021/01/11 16:05:14;;;;;;;;;;;;;;;;;;5094534;28;19911;-78
2021/01/11 16:07:40;;;;;;;;;;;;;;;;;;5094498;28;20351;-78
2021/01/11 16:10:06;;;;;;;;;;;;;;;;;;5094531;28;19916;-79
2021/01/11 16:12:32;;;;;;;;;;;;;;;;;;5092476;28;19915;-78
2021/01/11 16:14:58;;;;;;;;;;;;;;;;;;5094331;28;19904;-77
2021/01/11 16:17:24;;;;;;;;;;;;;;;;;;5093908;28;19943;-78
2021/01/11 16:19:51;;;;;;;;;;;;;;;;;;5085897;28;19923;-78
2021/01/11 16:22:17;;;;;;;;;;;;;;;;;;5094107;28;20405;-79
2021/01/11 16:24:45;;;;;;;;;;;;;;;;;;5090095;28;19912;-78
2021/01/11 16:27:11;;;;;;;;;;;;;;;;;;5103594;28;20248;-78
2021/01/11 16:29:37;;;;;;;;;;;;;;;;;;5086324;28;19930;-78
2021/01/11 16:32:03;;;;;;;;;;;;;;;;;;5089907;28;19912;-78
2021/01/11 16:34:31;;;;;;;;;;;;;;;;;;5093286;28;19987;-79
2021/01/11 16:36:57;;;;;;;;;;;;;;;;;;5093216;28;19904;-78